Chapel Hill, TN

11:32 PM CST on November 25, 2014 (GMT -0600)
Bett Ray Hill | Change Station
CLOSE
Current Station
Personal Weather Station
Location: Rockvale, TN
Elevation: 758 ft
Nearby Weather Stations

Elev 758 ft 35.72 °N, 86.58 °W | Updated 14 seconds ago

Partly Cloudy
Partly Cloudy
33.8 °F
Feels Like 34 °F
N
0.7
Wind Variable Wind from East
Gusts 1.6 mph

Today
High -- | Low -- °F
--% Chance of Precip.
Yesterday
High -- | Low -- °F
Precip. -- in
6:32 AM 4:34 PM
Waxing Crescent, 16% visible
Pressure 30.13 in
Visibility 10.0 miles
Clouds Clear
Windchill 34 °F
Dew Point 29 °F
Humidity 82%
Rainfall 0.00 in
Snow Depth Not available.
UV 0 out of 12
Pollen .40 out of 12
Air Quality Not available.
Flu Activity Not available.
METAR KTHA 260515Z AUTO VRB04KT 10SM CLR 04/M03 A3013 RMK

More Conditions Fewer Conditions

Pressure 30.13 in
Visibility 10.0 miles
Clouds Clear
Windchill 34 °F
Dew Point 29 °F
Humidity 82%
Rainfall 0.00 in
Snow Depth Not available.
UV 0 out of 12
Pollen .40 out of 12
Air Quality Not available.
Flu Activity Not available.
METAR KTHA 260515Z AUTO VRB04KT 10SM CLR 04/M03 A3013 RMK

More Conditions Fewer Conditions

10-Day Weather Forecast

Almanac

Astronomy

Nov. 25, 2014 Rise Set
Actual Time
Civil Twilight
Nautical Twilight
Astronomical Twilight
Moon
Length of Visible Light
Length of Day
Tomorrow will be .
, % of the Moon is Illuminated

Today's Extremes

State Highs State Lows

Community

WunderPhotos

Upload Photos

1,773,683 photos uploaded!

WunderBlogs® & News

Nearby

Air Quality

  Air Quality AQ Index Pollutant
Not available.

Snow Depth

Station Depth Elevation

Earthquake Activity

City Distance Mag. Time & Date
Minimum magnitude displayed is 2.5.

Coastal Water Temperatures

Place Temperature

Nearby Weather Stations